createdAt,value
2022-10-20T00:01:02.562Z,15.42
2022-10-20T00:03:29.764Z,15.44
2022-10-20T00:06:08.232Z,15.42
2022-10-20T00:08:36.887Z,15.42
2022-10-20T00:11:05.249Z,15.40
2022-10-20T00:13:32.348Z,15.40
2022-10-20T00:16:00.401Z,15.38
2022-10-20T00:18:28.035Z,15.38
2022-10-20T00:20:55.423Z,15.36
2022-10-20T00:23:22.927Z,15.36
2022-10-20T00:26:02.116Z,15.33
2022-10-20T00:28:29.316Z,15.34
2022-10-20T00:30:56.713Z,15.33
2022-10-20T00:33:23.949Z,15.34
2022-10-20T00:35:50.995Z,15.34
2022-10-20T00:40:52.180Z,15.34
2022-10-20T00:43:19.704Z,15.35
2022-10-20T00:45:56.003Z,15.33
2022-10-20T00:48:35.700Z,15.30
2022-10-20T00:51:02.923Z,15.32
2022-10-20T00:53:30.322Z,15.31
2022-10-20T00:56:00.400Z,15.29
2022-10-20T00:58:29.012Z,15.26
2022-10-20T01:00:59.584Z,15.21
2022-10-20T01:03:36.445Z,15.14
2022-10-20T01:06:04.312Z,15.13
2022-10-20T01:08:31.352Z,15.10
2022-10-20T01:11:15.875Z,15.06
2022-10-20T01:14:00.130Z,15.05
2022-10-20T01:16:39.247Z,15.01
2022-10-20T01:19:34.293Z,14.95
2022-10-20T01:22:23.703Z,14.90
2022-10-20T01:25:12.656Z,14.90
2022-10-20T01:27:44.532Z,14.93
2022-10-20T01:30:15.488Z,14.93
2022-10-20T01:33:09.734Z,14.86
2022-10-20T01:35:52.390Z,14.84
2022-10-20T01:38:30.558Z,14.83
2022-10-20T01:41:08.296Z,14.84
2022-10-20T01:43:41.786Z,14.86
2022-10-20T01:46:13.032Z,14.90
2022-10-20T01:48:41.255Z,14.95
2022-10-20T01:51:10.191Z,14.93
2022-10-20T01:53:37.337Z,14.93
2022-10-20T01:56:06.942Z,14.96
2022-10-20T01:59:05.660Z,14.93
2022-10-20T02:01:58.292Z,14.91
2022-10-20T02:04:35.345Z,14.93
2022-10-20T02:07:13.307Z,14.90
2022-10-20T02:09:48.356Z,14.88
2022-10-20T02:12:22.631Z,14.87
2022-10-20T02:14:53.060Z,14.89
2022-10-20T02:17:21.269Z,14.91
2022-10-20T02:19:53.090Z,14.91
2022-10-20T02:22:21.629Z,14.89
2022-10-20T02:24:49.811Z,14.89
2022-10-20T02:27:24.304Z,14.89
2022-10-20T02:29:57.303Z,14.88
2022-10-20T02:32:25.292Z,14.88
2022-10-20T02:34:52.265Z,14.87
2022-10-20T02:37:19.311Z,14.87
2022-10-20T02:39:46.391Z,14.84
2022-10-20T02:42:13.395Z,14.81
2022-10-20T02:44:40.448Z,14.80
2022-10-20T02:47:08.765Z,14.76
2022-10-20T02:49:35.833Z,14.72
2022-10-20T02:52:02.798Z,14.68
2022-10-20T02:54:29.736Z,14.61
2022-10-20T02:56:56.716Z,14.58
2022-10-20T02:59:23.678Z,14.54
2022-10-20T03:01:52.218Z,14.51
2022-10-20T03:04:20.557Z,14.48
2022-10-20T03:06:47.526Z,14.44
2022-10-20T03:09:14.476Z,14.40
2022-10-20T03:11:41.366Z,14.37
2022-10-20T03:14:08.486Z,14.35
2022-10-20T03:16:35.427Z,14.34
2022-10-20T03:19:05.288Z,14.31
2022-10-20T03:21:35.744Z,14.29
2022-10-20T03:24:02.796Z,14.29
2022-10-20T03:26:29.725Z,14.30
2022-10-20T03:28:56.664Z,14.29
2022-10-20T03:31:23.663Z,14.27
2022-10-20T03:33:50.577Z,14.24
2022-10-20T03:36:17.523Z,14.20
2022-10-20T03:38:45.793Z,14.14
2022-10-20T03:41:12.805Z,14.12
2022-10-20T03:43:40.012Z,14.09
2022-10-20T03:46:09.432Z,14.01
2022-10-20T03:48:38.158Z,13.92
2022-10-20T03:51:06.738Z,13.84
2022-10-20T03:53:33.748Z,13.73
2022-10-20T03:56:06.208Z,13.64
2022-10-20T03:58:33.257Z,13.57
2022-10-20T04:01:00.248Z,13.54
2022-10-20T04:03:27.206Z,13.49
2022-10-20T04:05:54.228Z,13.47
2022-10-20T04:08:21.165Z,13.46
2022-10-20T04:10:48.145Z,13.44
2022-10-20T04:13:16.385Z,13.34
2022-10-20T04:15:43.378Z,13.28
2022-10-20T04:18:10.275Z,13.26
2022-10-20T04:20:39.332Z,13.23
2022-10-20T04:23:09.140Z,13.23
2022-10-20T04:25:39.592Z,13.26
2022-10-20T04:28:06.483Z,13.28
2022-10-20T04:30:34.712Z,13.28
2022-10-20T04:33:01.647Z,13.29
2022-10-20T04:35:28.537Z,13.26
2022-10-20T04:37:55.452Z,13.25
2022-10-20T04:40:22.392Z,13.25
2022-10-20T04:42:49.277Z,13.25
2022-10-20T04:45:16.556Z,13.27
2022-10-20T04:47:44.838Z,13.27
2022-10-20T04:50:11.779Z,13.31
2022-10-20T04:52:38.686Z,13.35
2022-10-20T04:55:06.707Z,13.37
2022-10-20T04:57:34.058Z,13.37
2022-10-20T05:00:01.164Z,13.38
2022-10-20T05:02:28.085Z,13.32
2022-10-20T05:04:56.331Z,13.25
2022-10-20T05:07:23.309Z,13.21
2022-10-20T05:09:50.227Z,13.17
2022-10-20T05:12:17.130Z,13.15
2022-10-20T05:14:44.036Z,13.13
2022-10-20T05:17:10.930Z,13.13
2022-10-20T05:19:37.844Z,13.11
2022-10-20T05:22:06.169Z,13.13
2022-10-20T05:24:33.087Z,13.17
2022-10-20T05:27:00.020Z,13.20
2022-10-20T05:29:26.987Z,13.22
2022-10-20T05:31:53.896Z,13.22
2022-10-20T05:34:20.846Z,13.20
2022-10-20T05:36:47.774Z,13.21
2022-10-20T05:39:16.057Z,13.22
2022-10-20T05:41:42.960Z,13.25
2022-10-20T05:44:12.963Z,13.24
2022-10-20T05:46:41.643Z,13.25
2022-10-20T05:49:14.126Z,13.24
2022-10-20T05:51:41.488Z,13.22
2022-10-20T05:54:12.644Z,13.21
2022-10-20T05:56:41.598Z,13.21
2022-10-20T05:59:09.956Z,13.18
2022-10-20T06:01:47.480Z,13.20
2022-10-20T06:04:16.916Z,13.19
2022-10-20T06:06:44.280Z,13.20
2022-10-20T06:09:12.511Z,13.25
2022-10-20T06:11:41.056Z,13.23
2022-10-20T06:14:09.256Z,13.25
2022-10-20T06:16:36.586Z,13.26
2022-10-20T06:19:05.136Z,13.23
2022-10-20T06:21:34.801Z,13.19
2022-10-20T06:24:04.723Z,13.23
2022-10-20T06:26:36.206Z,13.24
2022-10-20T06:29:06.319Z,13.23
2022-10-20T06:31:35.498Z,13.27
2022-10-20T06:34:06.064Z,13.28
2022-10-20T06:36:36.007Z,13.28
2022-10-20T06:39:06.246Z,13.31
2022-10-20T06:41:34.199Z,13.28
2022-10-20T06:44:01.170Z,13.21
2022-10-20T06:46:31.533Z,13.22
2022-10-20T06:49:00.872Z,13.23
2022-10-20T06:51:28.070Z,13.27
2022-10-20T06:53:55.211Z,13.32
2022-10-20T06:56:24.574Z,13.33
2022-10-20T06:58:55.029Z,13.32
2022-10-20T07:01:24.260Z,13.38
2022-10-20T07:03:56.054Z,13.41
2022-10-20T07:06:30.818Z,13.44
2022-10-20T07:08:59.383Z,13.42
2022-10-20T07:11:29.518Z,13.42
2022-10-20T07:13:59.006Z,13.49
2022-10-20T07:16:29.110Z,13.52
2022-10-20T07:18:57.885Z,13.60
2022-10-20T07:21:30.817Z,13.64
2022-10-20T07:24:03.354Z,13.75
2022-10-20T07:26:33.091Z,13.89
2022-10-20T07:29:01.532Z,13.94
2022-10-20T07:31:34.794Z,13.97
2022-10-20T07:34:23.888Z,13.94
2022-10-20T07:36:52.998Z,14.03
2022-10-20T07:39:20.374Z,14.06
2022-10-20T07:41:48.518Z,14.08
2022-10-20T07:44:16.540Z,14.11
2022-10-20T07:46:43.753Z,14.14
2022-10-20T07:51:59.425Z,14.00
2022-10-20T07:54:26.414Z,13.92
2022-10-20T07:56:53.403Z,14.08
2022-10-20T07:59:20.429Z,14.24
2022-10-20T08:01:47.858Z,14.30
2022-10-20T08:04:16.191Z,14.37
2022-10-20T08:06:43.150Z,14.38
2022-10-20T08:09:11.222Z,14.31
2022-10-20T08:11:38.215Z,14.24
2022-10-20T08:14:05.214Z,14.26
2022-10-20T08:16:46.749Z,14.38
2022-10-20T08:21:56.208Z,14.52
2022-10-20T08:24:23.190Z,14.63
2022-10-20T08:26:50.248Z,14.60
2022-10-20T08:29:17.291Z,14.65
2022-10-20T08:31:44.807Z,14.75
2022-10-20T08:34:11.881Z,14.84
2022-10-20T08:36:38.916Z,14.89
2022-10-20T08:39:07.191Z,14.98
2022-10-20T08:42:07.546Z,15.10
2022-10-20T08:44:32.303Z,15.22
2022-10-20T08:47:03.320Z,15.31
2022-10-20T08:49:34.990Z,15.35
2022-10-20T08:52:02.683Z,15.47
2022-10-20T08:54:34.181Z,15.51
2022-10-20T08:57:01.279Z,15.62
2022-10-20T08:59:34.229Z,15.72
2022-10-20T09:02:02.989Z,15.82
2022-10-20T09:04:38.371Z,15.88
2022-10-20T09:07:20.270Z,15.85
2022-10-20T09:09:48.858Z,16.06
2022-10-20T09:12:18.006Z,16.30
2022-10-20T09:14:44.961Z,16.74
2022-10-20T09:17:17.837Z,17.10
2022-10-20T09:19:52.135Z,17.67
2022-10-20T09:22:33.343Z,17.59
2022-10-20T09:25:05.086Z,17.46
2022-10-20T09:27:36.402Z,17.39
2022-10-20T09:30:16.388Z,17.15
2022-10-20T09:32:47.091Z,17.03
2022-10-20T09:35:36.874Z,16.81
2022-10-20T09:38:19.544Z,16.76
2022-10-20T09:41:10.184Z,16.66
2022-10-20T09:43:41.288Z,16.64
2022-10-20T09:46:11.534Z,16.65
2022-10-20T09:48:46.993Z,16.70
2022-10-20T09:51:19.276Z,16.82
2022-10-20T09:53:55.270Z,16.92
2022-10-20T09:56:34.508Z,17.16
2022-10-20T09:59:06.557Z,17.29
2022-10-20T10:01:33.868Z,17.36
2022-10-20T10:04:02.026Z,17.42
2022-10-20T10:06:46.116Z,17.35
2022-10-20T10:09:30.971Z,17.40
2022-10-20T10:12:03.792Z,17.53
2022-10-20T10:14:33.469Z,17.49
2022-10-20T10:17:01.536Z,17.49
2022-10-20T10:19:31.804Z,17.60
2022-10-20T10:22:02.679Z,17.76
2022-10-20T10:24:43.506Z,17.76
2022-10-20T10:27:25.606Z,17.82
2022-10-20T10:29:54.031Z,17.98
2022-10-20T10:32:26.692Z,18.11
2022-10-20T10:35:17.666Z,18.01
2022-10-20T10:37:45.960Z,17.96
2022-10-20T10:40:17.903Z,18.03
2022-10-20T10:43:05.547Z,17.83
2022-10-20T10:45:51.407Z,17.89
2022-10-20T10:49:04.668Z,18.10
2022-10-20T10:51:51.702Z,18.35
2022-10-20T10:54:43.730Z,18.39
2022-10-20T10:57:24.204Z,18.55
2022-10-20T10:59:53.608Z,18.38
2022-10-20T11:03:00.599Z,18.67
2022-10-20T11:05:58.994Z,18.90
2022-10-20T11:09:03.293Z,19.23
2022-10-20T11:11:49.003Z,19.28
2022-10-20T11:14:31.317Z,19.36
2022-10-20T11:17:23.144Z,19.26
2022-10-20T11:20:11.983Z,19.12
2022-10-20T11:22:55.409Z,19.17
2022-10-20T11:25:34.052Z,19.27
2022-10-20T11:28:01.536Z,19.26
2022-10-20T11:30:33.743Z,19.36
2022-10-20T11:33:13.000Z,19.50
2022-10-20T11:35:46.948Z,19.55
2022-10-20T11:38:23.708Z,19.59
2022-10-20T11:41:00.653Z,19.57
2022-10-20T11:43:36.842Z,19.37
2022-10-20T11:46:11.522Z,19.28
2022-10-20T11:48:48.938Z,19.33
2022-10-20T11:52:01.558Z,19.22
2022-10-20T11:55:02.403Z,19.19
2022-10-20T11:57:55.390Z,19.25
2022-10-20T12:00:57.627Z,18.91
2022-10-20T12:04:24.285Z,19.02
2022-10-20T12:07:24.714Z,18.98
2022-10-20T12:10:26.408Z,19.11
2022-10-20T12:13:06.520Z,19.22
2022-10-20T12:15:33.567Z,19.23
2022-10-20T12:18:06.763Z,19.29
2022-10-20T12:21:01.468Z,19.06
2022-10-20T12:24:03.016Z,18.99
2022-10-20T12:26:43.864Z,19.09
2022-10-20T12:29:52.123Z,19.18
2022-10-20T12:33:00.825Z,19.14
2022-10-20T12:35:59.657Z,19.25
2022-10-20T12:38:30.546Z,19.37
2022-10-20T12:41:01.279Z,19.47
2022-10-20T12:43:37.467Z,19.33
2022-10-20T12:46:11.575Z,19.21
2022-10-20T12:48:45.894Z,19.30
2022-10-20T12:51:22.976Z,19.23
2022-10-20T12:54:02.381Z,19.19
2022-10-20T12:56:37.608Z,19.29
2022-10-20T12:59:34.566Z,19.23
2022-10-20T13:02:45.314Z,19.13
2022-10-20T13:05:42.526Z,19.07
2022-10-20T13:08:32.559Z,18.99
2022-10-20T13:11:56.700Z,19.07
2022-10-20T13:14:35.751Z,19.16
2022-10-20T13:17:16.468Z,19.10
2022-10-20T13:19:49.642Z,18.95
2022-10-20T13:22:44.403Z,18.97
2022-10-20T13:25:26.160Z,19.02
2022-10-20T13:28:04.539Z,19.02
2022-10-20T13:30:35.494Z,19.03
2022-10-20T13:34:02.148Z,19.04
2022-10-20T13:36:19.193Z,19.00
2022-10-20T13:38:57.840Z,19.02
2022-10-20T13:41:41.638Z,18.99
2022-10-20T13:44:31.706Z,19.00
2022-10-20T13:47:17.915Z,18.99
2022-10-20T13:50:00.029Z,18.96
2022-10-20T13:52:33.155Z,18.97
2022-10-20T13:55:01.591Z,18.93
2022-10-20T13:57:33.496Z,18.89
2022-10-20T14:00:15.978Z,18.84
2022-10-20T14:02:54.675Z,18.82
2022-10-20T14:05:23.711Z,18.86
2022-10-20T14:07:51.064Z,18.85
2022-10-20T14:10:31.261Z,18.79
2022-10-20T14:13:02.470Z,18.66
2022-10-20T14:15:35.047Z,18.69
2022-10-20T14:18:05.957Z,18.62
2022-10-20T14:20:38.520Z,18.63
2022-10-20T14:23:10.157Z,18.72
2022-10-20T14:25:38.554Z,18.78
2022-10-20T14:28:07.597Z,18.81
2022-10-20T14:30:40.881Z,18.78
2022-10-20T14:33:15.916Z,18.77
2022-10-20T14:35:50.912Z,18.76
2022-10-20T14:38:22.824Z,18.70
2022-10-20T14:40:52.851Z,18.66
2022-10-20T14:46:29.891Z,18.57
2022-10-20T14:48:59.905Z,18.54
2022-10-20T15:00:18.953Z,18.45
2022-10-20T15:02:56.030Z,18.52
2022-10-20T15:05:33.165Z,18.52
2022-10-20T15:08:15.075Z,18.51
2022-10-20T15:10:42.574Z,18.53
2022-10-20T15:13:26.471Z,18.63
2022-10-20T15:15:56.083Z,18.68
2022-10-20T15:18:24.917Z,18.64
2022-10-20T15:20:53.337Z,18.67
2022-10-20T15:23:22.703Z,18.65
2022-10-20T15:25:54.476Z,18.64
2022-10-20T15:28:35.028Z,18.67
2022-10-20T15:31:05.763Z,18.71
2022-10-20T15:33:34.500Z,18.67
2022-10-20T15:36:02.277Z,18.59
2022-10-20T15:38:29.748Z,18.52
2022-10-20T15:43:33.948Z,18.34
2022-10-20T15:46:03.805Z,18.26
2022-10-20T15:48:32.083Z,18.22
2022-10-20T15:51:01.181Z,18.20
2022-10-20T15:53:28.815Z,18.19
2022-10-20T15:55:56.331Z,18.17
2022-10-20T15:58:23.778Z,18.07
2022-10-20T16:00:51.087Z,18.03
2022-10-20T16:03:18.895Z,18.05
2022-10-20T16:05:47.460Z,18.03
2022-10-20T16:08:16.363Z,17.97
2022-10-20T16:10:44.553Z,17.99
2022-10-20T16:13:18.232Z,17.94
2022-10-20T16:15:45.596Z,17.93
2022-10-20T16:18:13.164Z,17.85
2022-10-20T16:20:40.817Z,17.82
2022-10-20T16:26:21.805Z,17.78
2022-10-20T16:28:49.261Z,17.78
2022-10-20T16:31:16.988Z,17.76
2022-10-20T16:33:44.772Z,17.72
2022-10-20T16:36:16.048Z,17.65
2022-10-20T16:38:44.093Z,17.66
2022-10-20T16:41:14.644Z,17.65
2022-10-20T16:43:46.284Z,17.65
2022-10-20T16:46:15.797Z,17.67
2022-10-20T16:48:47.551Z,17.64
2022-10-20T16:51:16.411Z,17.66
2022-10-20T16:53:43.963Z,17.61
2022-10-20T16:56:16.647Z,17.56
2022-10-20T16:58:50.342Z,17.49
2022-10-20T17:01:23.069Z,17.42
2022-10-20T17:03:53.148Z,17.38
2022-10-20T17:06:22.893Z,17.35
2022-10-20T17:08:51.750Z,17.25
2022-10-20T17:11:24.041Z,17.18
2022-10-20T17:13:53.624Z,17.18
2022-10-20T17:16:26.195Z,17.21
2022-10-20T17:18:56.741Z,17.20
2022-10-20T17:21:24.556Z,17.22
2022-10-20T17:23:51.496Z,17.21
2022-10-20T17:26:21.957Z,17.20
2022-10-20T17:28:49.939Z,17.15
2022-10-20T17:31:18.733Z,17.14
2022-10-20T17:33:46.834Z,17.10
2022-10-20T17:36:15.206Z,17.17
2022-10-20T17:38:42.981Z,17.18
2022-10-20T17:41:13.780Z,17.11
2022-10-20T17:43:41.694Z,17.09
2022-10-20T17:46:13.016Z,17.14
2022-10-20T17:48:41.895Z,17.18
2022-10-20T17:51:12.319Z,17.15
2022-10-20T17:53:43.476Z,17.13
2022-10-20T17:56:13.600Z,17.03
2022-10-20T17:58:44.842Z,17.03
2022-10-20T18:01:14.819Z,17.02
2022-10-20T18:03:45.242Z,17.02
2022-10-20T18:06:15.249Z,16.98
2022-10-20T18:08:42.559Z,16.95
2022-10-20T18:11:11.180Z,17.01
2022-10-20T18:13:38.847Z,17.04
2022-10-20T18:16:08.662Z,17.01
2022-10-20T18:18:36.141Z,17.01
2022-10-20T18:21:06.359Z,17.00
2022-10-20T18:23:36.005Z,17.02
2022-10-20T18:26:09.233Z,16.94
2022-10-20T18:28:41.066Z,16.84
2022-10-20T18:31:16.974Z,16.71
2022-10-20T18:33:44.554Z,16.59
2022-10-20T18:36:15.897Z,16.60
2022-10-20T18:38:45.696Z,16.57
2022-10-20T18:41:16.085Z,16.53
2022-10-20T18:43:47.467Z,16.60
2022-10-20T18:46:14.932Z,16.64
2022-10-20T18:48:42.864Z,16.64
2022-10-20T18:51:13.759Z,16.69
2022-10-20T18:53:42.950Z,16.77
2022-10-20T18:56:15.260Z,16.72
2022-10-20T18:58:47.804Z,16.70
2022-10-20T19:01:17.145Z,16.57
2022-10-20T19:03:48.359Z,16.61
2022-10-20T19:06:20.480Z,16.62
2022-10-20T19:08:52.587Z,16.66
2022-10-20T19:11:21.884Z,16.72
2022-10-20T19:13:48.975Z,16.78
2022-10-20T19:16:18.772Z,16.83
2022-10-20T19:18:47.522Z,16.85
2022-10-20T19:21:16.794Z,16.91
2022-10-20T19:23:47.309Z,16.88
2022-10-20T19:26:17.356Z,16.92
2022-10-20T19:28:48.307Z,16.89
2022-10-20T19:31:21.327Z,16.84
2022-10-20T19:33:52.271Z,16.82
2022-10-20T19:36:21.101Z,16.71
2022-10-20T19:38:48.557Z,16.69
2022-10-20T19:41:16.027Z,16.70
2022-10-20T19:43:43.504Z,16.73
2022-10-20T19:46:15.153Z,16.75
2022-10-20T19:48:43.925Z,16.75
2022-10-20T19:51:11.316Z,16.72
2022-10-20T19:53:39.896Z,16.74
2022-10-20T19:56:09.406Z,16.75
2022-10-20T19:58:41.333Z,16.71
2022-10-20T20:01:11.536Z,16.69
2022-10-20T20:03:38.589Z,16.67
2022-10-20T20:06:08.229Z,16.69
2022-10-20T20:08:36.206Z,16.70
2022-10-20T20:11:05.596Z,16.65
2022-10-20T20:13:32.842Z,16.66
2022-10-20T20:16:07.186Z,16.63
2022-10-20T20:18:35.507Z,16.61
2022-10-20T20:21:05.112Z,16.57
2022-10-20T20:23:41.320Z,16.54
2022-10-20T20:26:23.263Z,16.49
2022-10-20T20:28:52.983Z,16.51
2022-10-20T20:31:21.499Z,16.51
2022-10-20T20:33:49.211Z,16.53
2022-10-20T20:36:16.756Z,16.55
2022-10-20T20:38:43.885Z,16.48
2022-10-20T20:41:14.358Z,16.46
2022-10-20T20:43:45.097Z,16.46
2022-10-20T20:46:14.917Z,16.46
2022-10-20T20:48:42.907Z,16.49
2022-10-20T20:51:11.282Z,16.43
2022-10-20T20:53:39.763Z,16.38
2022-10-20T20:56:10.226Z,16.33
2022-10-20T20:58:37.859Z,16.34
2022-10-20T21:01:09.133Z,16.34
2022-10-20T21:03:36.353Z,16.33
2022-10-20T21:06:04.686Z,16.34
2022-10-20T21:08:32.899Z,16.31
2022-10-20T21:11:06.948Z,16.26
2022-10-20T21:13:35.489Z,16.24
2022-10-20T21:16:13.580Z,16.21
2022-10-20T21:18:43.388Z,16.23
2022-10-20T21:21:14.301Z,16.24
2022-10-20T21:23:42.093Z,16.32
2022-10-20T21:26:11.545Z,16.36
2022-10-20T21:28:38.912Z,16.35
2022-10-20T21:31:07.097Z,16.30
2022-10-20T21:33:37.326Z,16.25
2022-10-20T21:36:08.012Z,16.22
2022-10-20T21:38:36.978Z,16.23
2022-10-20T21:41:05.312Z,16.26
2022-10-20T21:43:34.769Z,16.27
2022-10-20T21:46:13.858Z,16.24
2022-10-20T21:48:43.689Z,16.28
2022-10-20T21:51:14.504Z,16.27
2022-10-20T21:53:41.736Z,16.28
2022-10-20T21:56:10.148Z,16.27
2022-10-20T21:58:37.334Z,16.25
2022-10-20T22:01:11.533Z,16.20
2022-10-20T22:03:39.655Z,16.19
2022-10-20T22:06:10.447Z,16.17
2022-10-20T22:08:40.442Z,16.19
2022-10-20T22:11:12.478Z,16.19
2022-10-20T22:13:39.571Z,16.21
2022-10-20T22:16:08.821Z,16.22
2022-10-20T22:18:35.904Z,16.23
2022-10-20T22:21:06.073Z,16.24
2022-10-20T22:23:37.438Z,16.22
2022-10-20T22:26:04.973Z,16.20
2022-10-20T22:28:32.342Z,16.16
2022-10-20T22:33:31.333Z,16.14
2022-10-20T22:35:58.298Z,16.16
2022-10-20T22:38:25.287Z,16.17
2022-10-20T22:40:58.475Z,16.20
2022-10-20T22:43:26.205Z,16.24
2022-10-20T22:45:53.473Z,16.31
2022-10-20T22:48:21.414Z,16.32
2022-10-20T22:50:49.320Z,16.33
2022-10-20T22:53:16.293Z,16.37
2022-10-20T22:55:43.265Z,16.34
2022-10-20T22:58:11.703Z,16.34
2022-10-20T23:00:39.673Z,16.34
2022-10-20T23:03:06.915Z,16.37
2022-10-20T23:05:34.070Z,16.38
2022-10-20T23:08:01.124Z,16.39
2022-10-20T23:10:28.424Z,16.37
2022-10-20T23:12:55.354Z,16.36
2022-10-20T23:15:23.776Z,16.42
2022-10-20T23:17:50.723Z,16.45
2022-10-20T23:20:17.902Z,16.53
2022-10-20T23:22:47.920Z,16.55
2022-10-20T23:25:15.042Z,16.59
2022-10-20T23:27:42.002Z,16.60
2022-10-20T23:30:10.048Z,16.65
2022-10-20T23:32:38.355Z,16.64
2022-10-20T23:35:07.131Z,16.66
2022-10-20T23:37:34.096Z,16.67
2022-10-20T23:40:00.986Z,16.68
2022-10-20T23:42:28.064Z,16.63
2022-10-20T23:44:54.988Z,16.59
2022-10-20T23:47:21.883Z,16.60
2022-10-20T23:49:50.156Z,16.64
2022-10-20T23:52:17.072Z,16.62
2022-10-20T23:54:43.972Z,16.68
2022-10-20T23:57:10.900Z,16.67
2022-10-20T23:59:37.792Z,16.67
